createdAt,value
2023-05-02T00:00:46.638Z,6.90
2023-05-02T00:04:49.662Z,7.05
2023-05-02T00:08:53.086Z,6.25
2023-05-02T00:12:54.750Z,6.35
2023-05-02T00:16:56.486Z,7.45
2023-05-02T00:20:58.255Z,6.82
2023-05-02T00:24:59.955Z,7.10
2023-05-02T00:29:01.669Z,7.22
2023-05-02T00:33:03.714Z,8.00
2023-05-02T00:37:05.479Z,8.37
2023-05-02T00:41:07.573Z,9.38
2023-05-02T00:45:09.617Z,9.88
2023-05-02T00:49:11.481Z,9.97
2023-05-02T00:53:13.138Z,9.80
2023-05-02T00:57:14.836Z,10.57
2023-05-02T01:01:53.852Z,10.40
2023-05-02T01:06:04.582Z,10.65
2023-05-02T01:10:09.459Z,11.05
2023-05-02T01:14:12.079Z,11.25
2023-05-02T01:18:18.663Z,11.40
2023-05-02T01:22:22.614Z,11.68
2023-05-02T01:26:41.234Z,11.90
2023-05-02T01:30:44.755Z,11.38
2023-05-02T01:34:47.452Z,11.57
2023-05-02T01:38:50.834Z,11.27
2023-05-02T01:42:53.811Z,10.18
2023-05-02T01:50:58.864Z,9.70
2023-05-02T01:55:01.314Z,10.77
2023-05-02T01:59:06.549Z,10.23
2023-05-02T02:03:10.618Z,11.75
2023-05-02T02:07:14.152Z,11.43
2023-05-02T02:11:22.231Z,12.35
2023-05-02T02:15:28.897Z,12.13
2023-05-02T02:19:32.186Z,11.40
2023-05-02T02:23:36.878Z,10.20
2023-05-02T02:27:38.764Z,10.73
2023-05-02T02:31:40.643Z,11.05
2023-05-02T02:35:48.524Z,11.45
2023-05-02T02:40:01.143Z,11.02
2023-05-02T02:44:24.371Z,11.75
2023-05-02T02:48:35.013Z,11.45
2023-05-02T02:52:36.659Z,11.48
2023-05-02T02:56:42.009Z,11.30
2023-05-02T03:00:45.050Z,12.23
2023-05-02T03:04:47.685Z,12.23
2023-05-02T03:08:49.355Z,13.10
2023-05-02T03:12:56.052Z,13.75
2023-05-02T03:16:59.125Z,13.63
2023-05-02T03:21:02.215Z,13.55
2023-05-02T03:25:04.091Z,13.38
2023-05-02T03:29:06.007Z,14.63
2023-05-02T03:33:13.193Z,14.85
2023-05-02T03:37:18.139Z,14.38
2023-05-02T03:41:21.112Z,13.60
2023-05-02T03:45:28.910Z,14.73
2023-05-02T03:49:30.744Z,14.70
2023-05-02T03:53:33.049Z,13.93
2023-05-02T03:57:34.863Z,13.88
2023-05-02T04:01:37.738Z,14.23
2023-05-02T04:05:40.687Z,13.30
2023-05-02T04:09:43.621Z,13.80
2023-05-02T04:13:46.834Z,13.93
2023-05-02T04:17:48.650Z,13.13
2023-05-02T04:21:51.529Z,13.90
2023-05-02T04:25:56.817Z,14.80
2023-05-02T04:30:10.794Z,15.10
2023-05-02T04:34:13.137Z,14.30
2023-05-02T04:38:18.913Z,15.20
2023-05-02T04:42:24.082Z,15.10
2023-05-02T04:46:38.219Z,14.43
2023-05-02T04:50:40.141Z,15.30
2023-05-02T04:54:42.236Z,15.65
2023-05-02T05:02:50.682Z,15.48
2023-05-02T05:06:52.885Z,16.25
2023-05-02T05:10:57.654Z,17.13
2023-05-02T05:15:00.295Z,16.58
2023-05-02T05:19:04.478Z,17.63
2023-05-02T05:27:10.265Z,18.40
2023-05-02T05:31:16.059Z,19.13
2023-05-02T05:35:21.942Z,21.05
2023-05-02T05:39:25.182Z,21.83
2023-05-02T05:43:29.445Z,23.30
2023-05-02T05:47:31.625Z,23.45
2023-05-02T05:51:33.620Z,23.40
2023-05-02T05:55:37.513Z,22.17
2023-05-02T05:59:40.360Z,23.65
2023-05-02T06:03:43.280Z,25.00
2023-05-02T06:07:45.209Z,23.42
2023-05-02T06:11:50.197Z,23.88
2023-05-02T06:15:52.803Z,24.67
2023-05-02T06:19:54.630Z,24.17
2023-05-02T06:23:56.388Z,23.50
2023-05-02T06:27:58.119Z,23.90
2023-05-02T06:31:59.860Z,25.55
2023-05-02T06:36:02.434Z,23.88
2023-05-02T06:44:07.316Z,24.00
2023-05-02T06:48:09.503Z,23.77
2023-05-02T06:52:11.333Z,26.90
2023-05-02T06:56:13.033Z,27.42
2023-05-02T07:00:16.836Z,28.05
2023-05-02T07:04:22.070Z,26.95
2023-05-02T07:08:24.298Z,30.20
2023-05-02T07:12:26.544Z,30.63
2023-05-02T07:16:31.627Z,29.90
2023-05-02T07:20:33.571Z,28.25
2023-05-02T07:24:35.418Z,28.00
2023-05-02T07:28:37.146Z,26.77
2023-05-02T07:32:40.000Z,25.50
2023-05-02T07:36:41.857Z,25.83
2023-05-02T07:40:43.774Z,25.40
2023-05-02T07:44:45.620Z,24.70
2023-05-02T07:48:47.348Z,21.35
2023-05-02T07:52:49.086Z,21.02
2023-05-02T07:56:50.819Z,22.10
2023-05-02T08:00:52.493Z,22.17
2023-05-02T08:04:54.305Z,20.60
2023-05-02T08:08:56.874Z,21.07
2023-05-02T08:12:58.587Z,20.58
2023-05-02T08:17:01.059Z,19.73
2023-05-02T08:21:02.736Z,19.65
2023-05-02T08:25:04.748Z,18.63
2023-05-02T08:29:06.654Z,18.70
2023-05-02T08:33:08.396Z,15.82
2023-05-02T08:37:11.009Z,15.55
2023-05-02T08:41:17.972Z,15.63
2023-05-02T08:45:20.130Z,15.13
2023-05-02T08:49:22.984Z,15.23
2023-05-02T08:57:29.628Z,12.68
2023-05-02T09:01:33.538Z,13.43
2023-05-02T09:05:41.175Z,11.38
2023-05-02T09:09:42.989Z,12.60
2023-05-02T09:13:53.679Z,13.30
2023-05-02T09:17:55.745Z,12.98
2023-05-02T09:22:01.647Z,11.97
2023-05-02T09:26:15.069Z,14.75
2023-05-02T09:30:22.401Z,12.82
2023-05-02T09:34:24.173Z,12.98
2023-05-02T09:38:26.003Z,13.07
2023-05-02T09:42:31.414Z,12.02
2023-05-02T09:46:49.936Z,12.38
2023-05-02T09:50:53.020Z,10.82
2023-05-02T09:54:56.653Z,11.38
2023-05-02T09:59:17.251Z,11.38
2023-05-02T10:03:19.926Z,11.82
2023-05-02T10:07:21.724Z,12.55
2023-05-02T10:11:25.335Z,10.80
2023-05-02T10:15:29.505Z,11.95
2023-05-02T10:19:39.369Z,11.70
2023-05-02T10:23:45.604Z,11.98
2023-05-02T10:27:48.545Z,12.15
2023-05-02T10:31:50.887Z,11.40
2023-05-02T10:35:52.632Z,11.38
2023-05-02T10:39:56.620Z,10.48
2023-05-02T10:44:00.573Z,11.02
2023-05-02T10:48:19.147Z,11.13
2023-05-02T10:52:29.771Z,10.98
2023-05-02T10:56:31.501Z,10.40
2023-05-02T11:00:34.418Z,11.00
2023-05-02T11:05:05.944Z,9.95
2023-05-02T11:09:14.784Z,9.65
2023-05-02T11:13:16.631Z,11.13
2023-05-02T11:17:18.668Z,9.07
2023-05-02T11:21:31.363Z,9.52
2023-05-02T11:25:38.117Z,7.22
2023-05-02T11:29:59.618Z,7.03
2023-05-02T11:34:02.588Z,7.07
2023-05-02T11:38:08.799Z,6.80
2023-05-02T11:42:10.667Z,7.63
2023-05-02T11:46:12.778Z,8.30
2023-05-02T11:50:15.663Z,7.07
2023-05-02T11:54:21.591Z,6.65
2023-05-02T11:58:35.067Z,6.15
2023-05-02T12:02:37.801Z,7.00
2023-05-02T12:06:54.909Z,6.50
2023-05-02T12:10:59.588Z,5.50
2023-05-02T12:15:08.812Z,5.80
2023-05-02T12:19:10.622Z,5.20
2023-05-02T12:23:13.110Z,5.60
2023-05-02T12:31:17.289Z,5.05
2023-05-02T12:35:23.323Z,5.07
2023-05-02T12:39:41.947Z,2.90
2023-05-02T12:43:47.080Z,2.88
2023-05-02T12:47:48.784Z,3.33
2023-05-02T12:51:55.895Z,3.42
2023-05-02T12:56:07.442Z,3.30
2023-05-02T13:00:10.225Z,3.42
2023-05-02T13:04:11.946Z,3.50
2023-05-02T13:08:13.750Z,2.45
2023-05-02T13:12:15.417Z,2.85
2023-05-02T13:16:17.342Z,3.40
2023-05-02T13:20:19.325Z,5.78
2023-05-02T13:24:21.326Z,5.33
2023-05-02T13:28:23.209Z,5.22
2023-05-02T13:32:29.244Z,5.68
2023-05-02T13:36:31.084Z,5.03
2023-05-02T13:40:32.896Z,5.63
2023-05-02T13:44:34.530Z,5.00
2023-05-02T13:48:37.580Z,4.22
2023-05-02T13:52:39.408Z,3.40
2023-05-02T13:56:41.636Z,3.35
2023-05-02T14:00:43.424Z,3.72
2023-05-02T14:04:46.622Z,3.30
2023-05-02T14:08:48.276Z,3.60
2023-05-02T14:12:50.090Z,3.03
2023-05-02T14:16:51.909Z,2.43
2023-05-02T14:20:53.706Z,2.77
2023-05-02T14:24:55.599Z,2.90
2023-05-02T14:28:57.412Z,3.03
2023-05-02T14:32:59.164Z,2.97
2023-05-02T14:37:00.957Z,3.30
2023-05-02T14:41:04.767Z,3.83
2023-05-02T14:45:07.810Z,3.40
2023-05-02T14:49:11.930Z,3.80
2023-05-02T14:53:15.116Z,3.65
2023-05-02T15:01:49.598Z,3.95
2023-05-02T15:05:54.707Z,4.63
2023-05-02T15:09:58.609Z,4.35
2023-05-02T15:14:06.183Z,4.18
2023-05-02T15:18:08.143Z,4.20
2023-05-02T15:22:12.338Z,4.47
2023-05-02T15:30:46.949Z,5.10
2023-05-02T15:34:51.654Z,4.50
2023-05-02T15:38:59.949Z,4.57
2023-05-02T15:43:10.976Z,5.05
2023-05-02T15:47:13.968Z,4.75
2023-05-02T15:51:16.564Z,4.40
2023-05-02T15:59:45.623Z,6.30
2023-05-02T16:03:52.160Z,4.88
2023-05-02T16:07:56.475Z,4.35
2023-05-02T16:12:06.361Z,4.78
2023-05-02T16:16:10.268Z,4.53
2023-05-02T16:20:16.998Z,4.20
2023-05-02T16:28:41.625Z,4.30
2023-05-02T16:32:45.359Z,3.77
2023-05-02T16:36:51.830Z,3.90
2023-05-02T16:40:54.133Z,3.38
2023-05-02T16:44:57.896Z,4.05
2023-05-02T16:49:08.423Z,3.92
2023-05-02T16:53:10.953Z,3.25
2023-05-02T16:57:20.028Z,3.70
2023-05-02T17:01:24.164Z,2.78
2023-05-02T17:05:28.666Z,3.10
2023-05-02T17:09:31.436Z,2.97
2023-05-02T17:17:38.081Z,3.15
2023-05-02T17:21:43.777Z,2.53
2023-05-02T17:25:45.771Z,2.90
2023-05-02T17:29:49.124Z,2.88
2023-05-02T17:33:58.452Z,3.33
2023-05-02T17:38:06.505Z,3.05
2023-05-02T17:52:51.965Z,2.58
2023-05-02T17:56:58.334Z,2.70
2023-05-02T18:01:11.500Z,2.83
2023-05-02T18:05:15.499Z,3.15
2023-05-02T18:09:21.995Z,3.03
2023-05-02T18:13:26.222Z,2.70
2023-05-02T18:17:28.235Z,3.00
2023-05-02T18:21:31.930Z,2.53
2023-05-02T18:25:35.953Z,2.47
2023-05-02T18:33:41.558Z,3.17
2023-05-02T18:37:43.367Z,2.90
2023-05-02T18:41:45.141Z,2.38
2023-05-02T18:45:48.730Z,2.55
2023-05-02T18:49:50.699Z,2.67
2023-05-02T18:53:52.609Z,2.70
2023-05-02T18:57:54.384Z,2.92
2023-05-02T19:01:56.729Z,3.30
2023-05-02T19:05:58.486Z,4.43
2023-05-02T19:10:00.363Z,3.28
2023-05-02T19:14:03.881Z,3.00
2023-05-02T19:18:05.619Z,3.17
2023-05-02T19:22:07.730Z,3.05
2023-05-02T19:26:16.571Z,3.37
2023-05-02T19:30:18.857Z,3.20
2023-05-02T19:34:20.987Z,2.75
2023-05-02T19:38:24.174Z,2.85
2023-05-02T19:42:25.937Z,3.42
2023-05-02T19:46:27.837Z,2.80
2023-05-02T19:50:30.957Z,2.58
2023-05-02T19:54:33.576Z,3.20
2023-05-02T19:58:35.404Z,3.47
2023-05-02T20:02:37.404Z,2.85
2023-05-02T20:06:39.292Z,3.10
2023-05-02T20:10:41.252Z,2.70
2023-05-02T20:14:47.467Z,3.00
2023-05-02T20:18:49.337Z,3.28
2023-05-02T20:22:51.911Z,3.10
2023-05-02T20:26:53.725Z,3.05
2023-05-02T20:30:55.716Z,2.88
2023-05-02T20:34:57.849Z,3.13
2023-05-02T20:38:59.650Z,3.57
2023-05-02T20:43:02.420Z,3.53
2023-05-02T20:51:07.617Z,3.30
2023-05-02T20:55:09.804Z,3.35
2023-05-02T20:59:12.102Z,3.20
2023-05-02T21:03:13.747Z,3.80
2023-05-02T21:07:18.772Z,3.85
2023-05-02T21:11:20.505Z,4.50
2023-05-02T21:15:22.488Z,3.47
2023-05-02T21:19:24.119Z,4.70
2023-05-02T21:23:26.412Z,3.70
2023-05-02T21:27:28.239Z,3.78
2023-05-02T21:31:32.299Z,4.25
2023-05-02T21:35:34.311Z,4.07
2023-05-02T21:39:36.140Z,4.05
2023-05-02T21:43:41.605Z,3.97
2023-05-02T21:47:44.619Z,3.88
2023-05-02T21:51:46.472Z,4.53
2023-05-02T21:55:48.273Z,4.65
2023-05-02T21:59:50.142Z,3.80
2023-05-02T22:03:51.947Z,3.87
2023-05-02T22:07:53.665Z,4.13
2023-05-02T22:11:55.617Z,4.07
2023-05-02T22:15:57.247Z,3.70
2023-05-02T22:19:58.886Z,4.25
2023-05-02T22:24:00.600Z,4.05
2023-05-02T22:28:07.161Z,3.97
2023-05-02T22:32:08.949Z,4.90
2023-05-02T22:36:10.767Z,3.97
2023-05-02T22:40:12.837Z,3.92
2023-05-02T22:44:14.669Z,4.23
2023-05-02T22:48:16.326Z,4.05
2023-05-02T22:52:18.549Z,4.05
2023-05-02T22:56:20.876Z,4.20
2023-05-02T23:00:23.697Z,4.75
2023-05-02T23:08:27.121Z,4.55
2023-05-02T23:12:28.875Z,4.50
2023-05-02T23:16:31.208Z,4.82
2023-05-02T23:20:35.203Z,4.32
2023-05-02T23:24:36.856Z,4.03
2023-05-02T23:28:39.602Z,4.10
2023-05-02T23:32:43.216Z,5.65
2023-05-02T23:36:45.337Z,4.57
2023-05-02T23:40:47.037Z,5.30
2023-05-02T23:44:51.077Z,4.22
2023-05-02T23:48:53.146Z,4.57
2023-05-02T23:52:54.779Z,4.03
2023-05-02T23:56:57.011Z,4.70
